Time;durP1;ratioP1;P1;durP2;ratioP2;P2;SDS_P1;SDS_P2;PMS_P1;PMS_P2;Temp;Humidity;BMP_temperature;BMP_pressure;BME280_temperature;BME280_humidity;BME280_pressure;Samples;Min_cycle;Max_cycle;Signal;HPM_P1;HPM_P2
2023/10/15 00:04:02;;;;;;;;;;;14.20;49.80;;;13.12;52.55;100845.84;12244441;19;20258;-82
2023/10/15 00:08:04;;;;;;;;;;;14.20;49.80;;;13.15;52.63;100856.13;12247455;19;19922;-81
2023/10/15 00:12:05;;;;;;;;;;;14.10;49.80;;;13.06;52.59;100854.94;12246707;19;19927;-82
2023/10/15 00:16:07;;;;;;;;;;;14.10;49.80;;;13.03;52.73;100852.53;12248959;19;19935;-81
2023/10/15 00:20:22;;;;;;;;;;;14.10;49.80;;;13.05;52.57;100858.53;12245552;19;20253;-81
2023/10/15 00:24:25;;;;;;;;;;;14.00;49.80;;;12.95;52.72;100849.56;12243171;19;19948;-81
2023/10/15 00:28:29;;;;;;;;;;;14.00;49.80;;;12.87;52.62;100841.34;12243603;19;19927;-82
2023/10/15 00:32:30;;;;;;;;;;;14.00;49.80;;;12.81;52.59;100850.44;12244993;19;19918;-82
2023/10/15 00:36:33;;;;;;;;;;;13.90;49.80;;;12.85;52.76;100867.63;12242798;19;19954;-82
2023/10/15 00:40:37;;;;;;;;;;;13.90;49.80;;;12.77;52.70;100862.88;12240355;19;19940;-81
2023/10/15 00:44:38;;;;;;;;;;;13.80;49.70;;;12.72;52.71;100867.56;12240777;19;20644;-82
2023/10/15 00:48:40;;;;;;;;;;;13.80;49.80;;;12.65;52.81;100865.41;12242810;19;19927;-81
2023/10/15 00:52:42;;;;;;;;;;;13.80;49.80;;;12.67;52.88;100874.88;12244566;19;19919;-82
2023/10/15 00:56:47;;;;;;;;;;;13.70;49.80;;;12.63;52.76;100865.50;12245240;19;19919;-82
2023/10/15 01:04:57;;;;;;;;;;;13.70;49.90;;;12.52;52.81;100852.22;12247856;19;20558;-82
2023/10/15 01:09:09;;;;;;;;;;;13.60;49.80;;;12.53;52.80;100859.13;12254364;19;19951;-82
2023/10/15 01:13:17;;;;;;;;;;;13.60;49.80;;;12.56;52.78;100877.31;12252661;19;19923;-82
2023/10/15 01:17:23;;;;;;;;;;;13.60;49.90;;;12.52;52.78;100879.25;12256243;19;19944;-82
2023/10/15 01:21:29;;;;;;;;;;;13.60;49.80;;;12.41;52.74;100868.59;12253368;19;19922;-82
2023/10/15 01:25:33;;;;;;;;;;;13.50;49.80;;;12.45;52.80;100877.97;12249996;19;20261;-82
2023/10/15 01:29:37;;;;;;;;;;;13.50;49.80;;;12.41;52.84;100879.06;12253151;19;20654;-82
2023/10/15 01:33:49;;;;;;;;;;;13.50;49.80;;;12.36;52.79;100878.50;12255656;19;19934;-82
2023/10/15 01:38:03;;;;;;;;;;;13.40;49.80;;;12.23;52.89;100867.06;12253833;19;19938;-81
2023/10/15 01:42:06;;;;;;;;;;;13.40;49.80;;;12.33;52.85;100884.75;12249540;19;19955;-81
2023/10/15 01:46:10;;;;;;;;;;;13.40;49.80;;;12.26;52.79;100873.00;12253179;19;19915;-81
2023/10/15 01:50:15;;;;;;;;;;;13.40;49.90;;;12.25;52.81;100878.31;12249906;19;19923;-82
2023/10/15 01:54:16;;;;;;;;;;;13.30;49.70;;;11.79;52.96;100805.94;12253837;19;19926;-82
2023/10/15 01:58:30;;;;;;;;;;;13.30;49.80;;;12.24;52.79;100885.31;12254703;19;20021;-81
2023/10/15 02:02:32;;;;;;;;;;;13.30;49.80;;;12.21;52.87;100888.13;12253191;19;19929;-82
2023/10/15 02:06:42;;;;;;;;;;;13.30;49.70;;;12.07;52.91;100868.00;12250939;19;19917;-81
2023/10/15 02:10:47;;;;;;;;;;;13.30;49.80;;;12.21;52.87;100882.06;12249133;19;20262;-81
2023/10/15 02:14:51;;;;;;;;;;;13.30;49.80;;;12.21;52.94;100889.91;12249533;19;19911;-82
2023/10/15 02:18:53;;;;;;;;;;;13.30;49.80;;;12.17;53.01;100894.47;12250004;19;19918;-82
2023/10/15 02:22:57;;;;;;;;;;;13.30;49.80;;;11.89;52.88;100835.06;12251226;19;19915;-81
2023/10/15 02:27:04;;;;;;;;;;;13.20;49.70;;;12.10;52.90;100877.47;12251815;19;19932;-82
2023/10/15 02:35:13;;;;;;;;;;;13.20;49.70;;;12.03;53.02;100889.22;12250408;19;19950;-82
2023/10/15 02:39:15;;;;;;;;;;;13.10;49.70;;;11.75;52.77;100835.84;12250006;19;19930;-81
2023/10/15 02:43:17;;;;;;;;;;;13.20;49.80;;;12.01;53.04;100884.03;12249633;19;19922;-82
2023/10/15 02:47:19;;;;;;;;;;;13.10;49.80;;;11.98;53.02;100886.84;12249603;19;19922;-82
2023/10/15 02:51:24;;;;;;;;;;;13.10;49.70;;;11.93;52.97;100881.03;12250442;19;19911;-82
2023/10/15 02:55:35;;;;;;;;;;;13.10;49.70;;;11.93;52.98;100876.63;12249658;19;20332;-81
2023/10/15 02:59:37;;;;;;;;;;;13.10;49.80;;;11.90;53.04;100884.69;12246317;19;19955;-82
2023/10/15 03:03:48;;;;;;;;;;;13.10;49.80;;;11.94;53.04;100887.97;12246814;19;19922;-82
2023/10/15 03:07:49;;;;;;;;;;;13.00;49.70;;;11.92;53.10;100909.00;12247565;19;19974;-82
2023/10/15 03:11:51;;;;;;;;;;;13.00;49.70;;;11.89;53.05;100898.69;12249282;19;19914;-81
2023/10/15 03:15:53;;;;;;;;;;;13.00;49.70;;;11.90;52.88;100900.38;12242463;19;19925;-82
2023/10/15 03:19:55;;;;;;;;;;;13.00;49.80;;;11.89;53.17;100901.31;12245857;19;19938;-81
2023/10/15 03:23:57;;;;;;;;;;;13.00;49.80;;;11.77;53.04;100878.44;12246583;19;19922;-82
2023/10/15 03:28:00;;;;;;;;;;;13.00;49.80;;;11.86;53.11;100900.66;12245185;19;20275;-82
2023/10/15 03:32:09;;;;;;;;;;;13.00;49.80;;;11.85;53.07;100898.94;12248317;19;19923;-82
2023/10/15 03:36:12;;;;;;;;;;;12.90;49.70;;;11.85;52.93;100901.53;12249100;19;19911;-82
2023/10/15 03:40:32;;;;;;;;;;;13.00;49.80;;;11.83;53.06;100904.28;12244545;19;19919;-82
2023/10/15 03:44:34;;;;;;;;;;;13.00;49.80;;;11.82;52.88;100892.09;12244853;19;20485;-82
2023/10/15 03:48:47;;;;;;;;;;;12.90;49.70;;;11.79;52.89;100896.69;12245366;19;20253;-83
2023/10/15 03:52:49;;;;;;;;;;;12.90;49.70;;;11.71;53.10;100897.09;12246442;19;19927;-82
2023/10/15 03:56:51;;;;;;;;;;;12.80;49.70;;;11.58;52.87;100883.88;12245794;19;20025;-81
2023/10/15 04:05:14;;;;;;;;;;;12.80;49.70;;;11.54;53.10;100890.22;12244217;19;19939;-82
2023/10/15 04:09:16;;;;;;;;;;;12.80;49.80;;;11.49;52.98;100890.47;12245680;19;19955;-82
2023/10/15 04:13:18;;;;;;;;;;;12.70;49.70;;;11.52;53.02;100898.16;12244984;19;20007;-81
2023/10/15 04:17:22;;;;;;;;;;;12.70;49.80;;;11.50;53.04;100902.66;12245322;19;19926;-82
2023/10/15 04:21:23;;;;;;;;;;;12.70;49.80;;;11.23;53.06;100847.50;12247452;19;19982;-81
2023/10/15 04:25:26;;;;;;;;;;;12.60;49.80;;;11.47;53.05;100892.31;12242545;19;19946;-82
2023/10/15 04:29:30;;;;;;;;;;;12.60;49.80;;;11.47;53.02;100886.25;12244213;19;19918;-82
2023/10/15 04:33:32;;;;;;;;;;;12.60;49.80;;;11.43;52.92;100876.91;12245344;19;19922;-82
2023/10/15 04:37:36;;;;;;;;;;;12.60;49.90;;;11.44;53.03;100881.22;12242105;19;19922;-82
2023/10/15 04:41:39;;;;;;;;;;;12.60;49.80;;;11.40;53.13;100872.69;12257360;19;19927;-82
2023/10/15 04:45:44;;;;;;;;;;;12.60;49.80;;;11.38;53.04;100871.09;12250146;19;19922;-81
2023/10/15 04:49:47;;;;;;;;;;;12.60;49.80;;;11.42;53.12;100873.47;12250825;19;19986;-82
2023/10/15 04:53:49;;;;;;;;;;;12.50;49.80;;;11.35;53.00;100861.66;12255764;19;19961;-82
2023/10/15 04:57:50;;;;;;;;;;;12.60;49.90;;;11.34;53.11;100870.44;12254563;19;20297;-82
2023/10/15 05:01:52;;;;;;;;;;;12.50;49.80;;;11.18;53.13;100848.66;12256437;19;20249;-82
2023/10/15 05:05:59;;;;;;;;;;;12.40;49.80;;;11.25;52.98;100861.31;12249413;19;19926;-82
2023/10/15 05:10:01;;;;;;;;;;;12.50;49.80;;;11.24;53.33;100864.88;12252278;19;19911;-82
2023/10/15 05:14:04;;;;;;;;;;;12.40;49.80;;;11.16;53.11;100861.00;12253890;19;19919;-82
2023/10/15 05:18:06;;;;;;;;;;;12.40;49.80;;;11.17;53.06;100880.97;12247658;19;19925;-82
2023/10/15 05:22:08;;;;;;;;;;;12.40;49.80;;;11.22;53.14;100890.25;12255109;19;19924;-82
2023/10/15 05:26:10;;;;;;;;;;;12.40;49.80;;;11.13;53.07;100874.25;12246479;19;19925;-82
2023/10/15 05:30:12;;;;;;;;;;;12.30;49.80;;;11.17;53.00;100889.66;12250405;19;19935;-82
2023/10/15 05:34:15;;;;;;;;;;;12.40;49.90;;;11.15;53.17;100883.69;12247734;19;20007;-83
2023/10/15 05:38:19;;;;;;;;;;;12.30;49.80;;;10.97;53.01;100871.63;12251211;19;19922;-82
2023/10/15 05:42:21;;;;;;;;;;;12.50;49.90;;;11.16;53.10;100908.88;12251528;19;19918;-82
2023/10/15 05:46:23;;;;;;;;;;;12.30;49.90;;;11.07;53.23;100894.56;12255106;19;19915;-82
2023/10/15 05:50:25;;;;;;;;;;;12.30;49.90;;;11.06;53.18;100886.78;12249137;19;20352;-83
2023/10/15 05:54:27;;;;;;;;;;;12.30;49.90;;;11.02;53.28;100896.56;12255950;19;19929;-83
2023/10/15 05:58:28;;;;;;;;;;;12.20;49.90;;;11.02;53.11;100907.03;12253689;19;19923;-82
2023/10/15 06:02:30;;;;;;;;;;;12.20;49.80;;;10.94;53.18;100883.09;12248243;19;19907;-83
2023/10/15 06:06:32;;;;;;;;;;;12.20;49.90;;;11.02;53.31;100916.66;12254687;19;20289;-81
2023/10/15 06:10:34;;;;;;;;;;;12.20;49.90;;;10.87;53.02;100897.41;12251161;19;20229;-82
2023/10/15 06:14:36;;;;;;;;;;;12.10;49.90;;;10.97;53.20;100929.94;12252892;19;19930;-82
2023/10/15 06:18:38;;;;;;;;;;;12.10;49.90;;;10.96;53.07;100933.47;12252900;19;19911;-83
2023/10/15 06:22:47;;;;;;;;;;;12.30;50.00;;;10.90;53.11;100925.97;12252665;19;19918;-83
2023/10/15 06:26:48;;;;;;;;;;;12.10;50.00;;;10.90;53.12;100933.81;12256061;19;19926;-83
2023/10/15 06:30:51;;;;;;;;;;;12.10;50.00;;;10.94;53.15;100934.50;12250823;19;19915;-84
2023/10/15 06:34:53;;;;;;;;;;;12.10;50.00;;;10.67;53.11;100898.47;12255052;19;19923;-82
2023/10/15 06:38:56;;;;;;;;;;;12.10;50.10;;;10.93;53.28;100946.69;12251731;19;19919;-82
2023/10/15 06:43:01;;;;;;;;;;;12.10;50.00;;;10.97;53.29;100965.69;12252374;19;19919;-83
2023/10/15 06:47:02;;;;;;;;;;;12.10;50.10;;;10.96;53.13;100958.75;12252024;19;19922;-83
2023/10/15 06:51:08;;;;;;;;;;;12.10;50.10;;;10.79;53.32;100931.75;12247251;19;20622;-84
2023/10/15 06:55:11;;;;;;;;;;;12.10;50.10;;;10.96;53.25;100954.38;12249570;19;19959;-83
2023/10/15 06:59:12;;;;;;;;;;;12.20;50.10;;;10.91;53.28;100951.19;12247790;19;19930;-83
2023/10/15 07:03:15;;;;;;;;;;;12.20;50.20;;;10.98;53.16;100956.91;12245788;19;19907;-83
2023/10/15 07:07:16;;;;;;;;;;;12.10;50.30;;;11.00;53.22;100961.13;12247530;19;20052;-83
2023/10/15 07:11:18;;;;;;;;;;;12.20;50.20;;;10.95;53.53;100957.09;12249792;19;19927;-83
2023/10/15 07:15:20;;;;;;;;;;;12.20;50.20;;;10.96;53.41;100953.53;12249374;19;19918;-83
2023/10/15 07:19:25;;;;;;;;;;;12.20;50.20;;;10.94;53.41;100956.25;12246015;19;19918;-83
2023/10/15 07:23:26;;;;;;;;;;;12.20;50.30;;;11.03;53.36;100962.75;12247892;19;19939;-83
2023/10/15 07:27:28;;;;;;;;;;;12.20;50.50;;;11.03;53.56;100958.34;12250505;19;19970;-83
2023/10/15 07:31:30;;;;;;;;;;;12.30;50.50;;;10.96;53.47;100949.16;12245715;19;19923;-83
2023/10/15 07:35:31;;;;;;;;;;;12.30;50.50;;;11.17;53.56;100982.91;12245141;19;19915;-84
2023/10/15 07:39:32;;;;;;;;;;;12.30;50.40;;;11.11;53.53;100967.56;12249807;19;20337;-85
2023/10/15 07:43:34;;;;;;;;;;;12.40;50.50;;;11.18;53.54;100981.97;12250226;19;19911;-83
2023/10/15 07:47:37;;;;;;;;;;;12.40;50.60;;;11.35;53.44;101000.22;12254187;19;20655;-84
2023/10/15 07:51:39;;;;;;;;;;;12.50;50.50;;;11.29;53.65;100992.72;12252819;19;20242;-84
2023/10/15 07:55:40;;;;;;;;;;;12.60;50.50;;;11.41;53.37;100989.44;12250819;19;20305;-84
2023/10/15 07:59:42;;;;;;;;;;;12.70;50.50;;;11.38;53.60;100989.59;12246918;19;19931;-84
2023/10/15 08:03:44;;;;;;;;;;;12.70;50.50;;;11.50;53.71;100990.69;12249242;19;19917;-83
2023/10/15 08:07:46;;;;;;;;;;;12.80;50.40;;;11.38;53.49;100970.47;12240580;19;19935;-84
2023/10/15 08:11:47;;;;;;;;;;;12.80;50.40;;;11.56;53.52;100992.13;12247311;19;19911;-84
2023/10/15 08:15:49;;;;;;;;;;;12.90;50.40;;;11.61;53.69;100985.75;12254104;19;19918;-83
2023/10/15 08:19:51;;;;;;;;;;;13.00;50.40;;;11.87;53.68;101028.78;12259438;19;19946;-84
2023/10/15 08:23:53;;;;;;;;;;;13.00;50.40;;;11.68;53.70;100968.75;12261016;19;19911;-84
2023/10/15 08:27:55;;;;;;;;;;;13.20;50.50;;;12.07;53.58;101016.34;12260495;19;19923;-84
2023/10/15 08:31:56;;;;;;;;;;;13.30;50.40;;;12.15;53.60;101012.38;12259421;19;19957;-84
2023/10/15 08:36:02;;;;;;;;;;;13.40;50.40;;;11.99;53.65;100976.66;12262782;19;19915;-82
2023/10/15 08:40:06;;;;;;;;;;;13.50;50.20;;;12.01;53.61;100974.81;12256321;19;20227;-84
2023/10/15 08:44:10;;;;;;;;;;;13.50;50.10;;;12.15;53.72;100995.81;12258981;19;19910;-83
2023/10/15 08:48:12;;;;;;;;;;;13.60;50.10;;;12.35;53.62;101024.31;12259755;19;19911;-83
2023/10/15 08:52:15;;;;;;;;;;;13.60;50.10;;;12.31;53.55;101017.59;12261464;19;19914;-83
2023/10/15 08:56:21;;;;;;;;;;;13.70;49.90;;;12.34;53.57;101027.88;12257919;19;19914;-83
2023/10/15 09:00:28;;;;;;;;;;;13.70;49.90;;;12.30;53.63;101020.28;12254945;19;19933;-84
2023/10/15 09:04:30;;;;;;;;;;;13.70;50.00;;;12.41;53.59;101044.06;12251835;19;19939;-83
2023/10/15 09:08:31;;;;;;;;;;;13.70;50.00;;;12.18;53.62;100995.66;12253409;19;19940;-83
2023/10/15 09:12:34;;;;;;;;;;;13.80;50.00;;;12.54;53.58;101046.81;12252919;19;19929;-83
2023/10/15 09:16:35;;;;;;;;;;;13.80;50.00;;;12.50;53.66;101026.97;12253286;19;19919;-83
2023/10/15 09:20:42;;;;;;;;;;;13.80;50.00;;;12.49;53.51;101015.66;12248713;19;20261;-82
2023/10/15 09:24:44;;;;;;;;;;;13.90;50.00;;;12.61;53.52;101033.28;12250712;19;20282;-84
2023/10/15 09:28:46;;;;;;;;;;;13.90;50.00;;;12.72;53.67;101039.66;12256636;19;19926;-83
2023/10/15 09:32:48;;;;;;;;;;;14.00;50.10;;;12.83;53.51;101058.22;12255501;19;20290;-83
2023/10/15 09:36:49;;;;;;;;;;;14.00;50.00;;;12.85;53.55;101053.72;12254094;19;19938;-84
2023/10/15 09:40:56;;;;;;;;;;;14.10;49.90;;;12.74;53.65;101032.53;12243826;19;19927;-84
2023/10/15 09:45:01;;;;;;;;;;;14.10;49.90;;;12.93;53.62;101059.34;12251635;19;19907;-83
2023/10/15 09:49:04;;;;;;;;;;;14.20;49.80;;;12.96;53.56;101059.19;12249693;19;19923;-83
2023/10/15 09:53:12;;;;;;;;;;;14.30;49.80;;;12.95;53.52;101061.88;12249670;19;19984;-82
2023/10/15 09:57:16;;;;;;;;;;;14.30;49.80;;;13.06;53.43;101086.50;12252777;19;20023;-83
2023/10/15 10:01:28;;;;;;;;;;;14.30;49.80;;;13.02;53.35;101073.69;12250840;19;19982;-83
2023/10/15 10:05:49;;;;;;;;;;;14.30;49.80;;;12.95;53.36;101069.75;12248312;19;19994;-82
2023/10/15 10:09:56;;;;;;;;;;;14.30;49.60;;;13.03;53.54;101081.44;12247256;19;19926;-83
2023/10/15 10:13:57;;;;;;;;;;;14.30;49.60;;;13.06;53.39;101091.75;12252063;19;19930;-83
2023/10/15 10:17:59;;;;;;;;;;;14.30;49.50;;;12.74;53.36;101046.47;12249427;19;20015;-83
2023/10/15 10:22:00;;;;;;;;;;;14.30;49.60;;;13.09;53.40;101084.66;12247953;19;19919;-83
2023/10/15 10:26:10;;;;;;;;;;;14.30;49.70;;;13.01;53.42;101062.34;12244313;19;19936;-83
2023/10/15 10:30:28;;;;;;;;;;;14.40;49.70;;;13.19;53.31;101075.28;12234729;19;19923;-83
2023/10/15 10:34:30;;;;;;;;;;;14.40;49.70;;;13.01;53.32;101046.59;12246421;19;19926;-82
2023/10/15 10:38:34;;;;;;;;;;;14.50;49.60;;;13.21;53.27;101076.06;12237616;19;19907;-82
2023/10/15 10:42:35;;;;;;;;;;;14.50;49.50;;;13.12;53.23;101060.84;12244405;19;19922;-82
2023/10/15 10:46:41;;;;;;;;;;;14.50;49.50;;;13.22;53.33;101081.19;12244145;19;19923;-82
2023/10/15 10:50:46;;;;;;;;;;;14.50;49.50;;;13.23;53.22;101077.66;12242725;19;19925;-82
2023/10/15 10:54:48;;;;;;;;;;;14.50;49.50;;;13.21;53.23;101082.13;12245554;19;19918;-83
2023/10/15 10:58:54;;;;;;;;;;;14.40;49.50;;;13.18;53.18;101065.75;12244647;19;19922;-83
2023/10/15 11:02:56;;;;;;;;;;;14.40;49.40;;;13.16;53.18;101055.34;12243353;19;20637;-83
2023/10/15 11:06:58;;;;;;;;;;;14.40;49.50;;;13.16;53.24;101055.34;12241470;19;20325;-83
2023/10/15 11:10:59;;;;;;;;;;;14.40;49.50;;;13.22;53.44;101052.34;12240595;19;20397;-83
2023/10/15 11:15:01;;;;;;;;;;;14.50;49.50;;;13.23;53.23;101045.31;12243282;19;19922;-83
2023/10/15 11:19:15;;;;;;;;;;;14.70;49.30;;;13.20;53.29;101035.84;12241727;19;20325;-83
2023/10/15 11:23:17;;;;;;;;;;;14.50;49.40;;;13.37;53.24;101058.47;12242576;19;20471;-83
2023/10/15 11:27:19;;;;;;;;;;;14.50;49.30;;;13.38;53.19;101064.56;12240713;19;19954;-83
2023/10/15 11:31:21;;;;;;;;;;;14.60;49.40;;;13.09;53.18;101017.31;12237219;19;20026;-83
2023/10/15 11:35:23;;;;;;;;;;;14.60;49.40;;;13.32;53.09;101054.44;12241824;19;19925;-84
2023/10/15 11:40:12;;;;;;;;;;;14.60;49.30;;;13.33;53.21;101056.97;12243723;19;19914;-82
2023/10/15 11:43:49;;;;;;;;;;;14.60;49.20;;;13.38;53.21;101052.28;12236431;19;19923;-83
2023/10/15 11:47:50;;;;;;;;;;;14.60;49.30;;;13.39;53.26;101046.09;12234275;19;19944;-82
2023/10/15 11:51:56;;;;;;;;;;;14.60;49.30;;;13.46;53.09;101047.41;12237960;19;19992;-84
2023/10/15 11:55:58;;;;;;;;;;;14.60;49.30;;;13.50;53.21;101046.28;12243250;19;20341;-83
2023/10/15 11:59:59;;;;;;;;;;;14.70;49.40;;;13.55;53.08;101043.34;12242621;19;19927;-83
2023/10/15 12:04:00;;;;;;;;;;;14.80;49.30;;;13.65;53.14;101051.50;12242447;19;20385;-83
2023/10/15 12:08:03;;;;;;;;;;;14.80;49.20;;;13.68;53.09;101059.19;12244433;19;19914;-81
2023/10/15 12:12:04;;;;;;;;;;;14.90;49.10;;;13.59;53.12;101047.47;12244581;19;19936;-82
2023/10/15 12:16:05;;;;;;;;;;;14.90;49.20;;;13.57;53.00;101041.47;12245482;19;19915;-83
2023/10/15 12:20:08;;;;;;;;;;;14.90;49.10;;;13.66;53.03;101053.19;12238590;19;19918;-83
2023/10/15 12:24:10;;;;;;;;;;;14.90;49.40;;;13.63;52.92;101042.88;12247736;19;19925;-81
2023/10/15 12:28:12;;;;;;;;;;;14.90;49.00;;;13.70;52.93;101055.53;12244436;19;19923;-82
2023/10/15 12:32:13;;;;;;;;;;;14.90;49.00;;;13.56;52.98;101037.19;12240584;19;19922;-82
2023/10/15 12:36:15;;;;;;;;;;;14.90;48.90;;;13.64;53.05;101041.97;12247422;19;19922;-83
2023/10/15 12:40:22;;;;;;;;;;;14.90;48.90;;;13.68;53.07;101051.31;12244295;19;19918;-83
2023/10/15 12:44:26;;;;;;;;;;;14.90;48.80;;;13.66;52.93;101038.28;12245778;19;20771;-83
2023/10/15 12:48:29;;;;;;;;;;;14.90;48.90;;;13.44;52.94;100995.97;12246268;19;19922;-82
2023/10/15 12:52:31;;;;;;;;;;;14.90;49.00;;;13.83;52.92;101054.75;12247094;19;19919;-82
2023/10/15 12:56:33;;;;;;;;;;;15.00;49.00;;;13.79;52.88;101033.09;12243683;19;19919;-82
2023/10/15 13:00:39;;;;;;;;;;;15.00;48.50;;;13.70;52.87;101013.53;12246800;19;19926;-83
2023/10/15 13:04:43;;;;;;;;;;;15.10;48.40;;;13.91;52.91;101036.72;12251765;19;20336;-83
2023/10/15 13:08:46;;;;;;;;;;;15.10;48.60;;;13.90;52.92;101028.00;12254670;19;19919;-82
2023/10/15 13:12:48;;;;;;;;;;;15.20;48.70;;;14.04;52.95;101050.75;12254985;19;20333;-83
2023/10/15 13:16:50;;;;;;;;;;;15.20;48.40;;;14.07;53.00;101031.31;12255157;19;19915;-83
2023/10/15 13:20:51;;;;;;;;;;;15.30;48.60;;;14.11;52.75;101038.91;12254563;19;19926;-85
2023/10/15 13:24:53;;;;;;;;;;;15.30;48.60;;;13.89;52.83;100996.59;12252038;19;19923;-83
2023/10/15 13:28:54;;;;;;;;;;;15.30;48.80;;;14.19;52.86;101045.44;12260901;19;19911;-83
2023/10/15 13:32:56;;;;;;;;;;;15.40;48.60;;;14.09;52.78;101032.91;12261578;19;19914;-82
2023/10/15 13:36:58;;;;;;;;;;;15.40;46.70;;;14.08;52.56;101054.84;12257606;19;19942;-82
2023/10/15 13:40:59;;;;;;;;;;;15.30;48.00;;;13.93;52.59;101030.44;12245727;19;19974;-83
2023/10/15 13:45:01;;;;;;;;;;;15.30;48.00;;;14.03;52.67;101056.94;12244297;19;19915;-82
2023/10/15 13:49:02;;;;;;;;;;;15.20;47.80;;;13.92;52.57;101055.00;12247543;19;20333;-83
2023/10/15 13:53:04;;;;;;;;;;;15.20;48.00;;;13.96;52.65;101055.66;12250947;19;19929;-82
2023/10/15 13:57:08;;;;;;;;;;;15.20;48.20;;;14.00;52.56;101062.38;12241897;19;19929;-82
2023/10/15 14:01:10;;;;;;;;;;;15.20;48.10;;;13.98;52.58;101061.63;12247325;19;20317;-82
2023/10/15 14:05:16;;;;;;;;;;;15.20;48.00;;;13.97;52.59;101062.59;12245510;19;19915;-82
2023/10/15 14:09:17;;;;;;;;;;;15.20;47.40;;;13.90;52.47;101058.66;12248715;19;19923;-82
2023/10/15 14:13:19;;;;;;;;;;;15.10;47.30;;;13.94;52.48;101073.28;12246641;19;19923;-84
2023/10/15 14:17:20;;;;;;;;;;;15.10;47.50;;;13.83;52.52;101060.00;12249376;19;19979;-82
2023/10/15 14:21:22;;;;;;;;;;;15.10;47.90;;;13.86;52.47;101059.81;12249712;19;19923;-81
2023/10/15 14:25:24;;;;;;;;;;;15.10;48.30;;;13.89;52.45;101067.47;12244479;19;19922;-80
2023/10/15 14:29:25;;;;;;;;;;;15.10;48.30;;;13.65;52.38;101026.09;12248973;19;19970;-82
2023/10/15 14:33:27;;;;;;;;;;;15.10;48.10;;;13.98;52.45;101087.06;12246562;19;20389;-82
2023/10/15 14:37:30;;;;;;;;;;;15.10;48.30;;;13.96;52.40;101092.44;12245226;19;19926;-82
2023/10/15 14:41:31;;;;;;;;;;;15.10;48.30;;;13.87;52.34;101080.69;12248492;19;20275;-83
2023/10/15 14:45:35;;;;;;;;;;;15.10;48.40;;;13.92;52.25;101090.91;12246809;19;19914;-83
2023/10/15 14:49:37;;;;;;;;;;;15.10;48.30;;;13.98;52.32;101098.41;12245616;19;19923;-82
2023/10/15 14:53:39;;;;;;;;;;;15.10;48.60;;;13.96;52.37;101113.44;12250327;19;20269;-81
2023/10/15 14:57:40;;;;;;;;;;;15.00;48.30;;;13.91;52.26;101105.00;12248974;19;19935;-81
2023/10/15 15:01:43;;;;;;;;;;;15.00;48.30;;;13.86;52.30;101101.81;12249725;19;19933;-81
2023/10/15 15:05:45;;;;;;;;;;;15.00;48.30;;;13.95;52.22;101127.47;12245596;19;19951;-81
2023/10/15 15:09:47;;;;;;;;;;;15.10;48.10;;;13.89;52.28;101125.25;12248319;19;19927;-81
2023/10/15 15:13:48;;;;;;;;;;;15.00;48.30;;;13.76;52.27;101112.03;12249114;19;20312;-81
2023/10/15 15:17:50;;;;;;;;;;;15.00;47.70;;;13.80;52.31;101133.69;12246169;19;19926;-81
2023/10/15 15:21:51;;;;;;;;;;;15.00;48.10;;;13.73;52.13;101126.19;12234382;19;19918;-82
2023/10/15 15:25:53;;;;;;;;;;;14.90;48.10;;;13.49;52.20;101096.22;12242819;19;19923;-83
2023/10/15 15:29:55;;;;;;;;;;;14.90;48.00;;;13.59;52.18;101126.22;12243219;19;19925;-83
2023/10/15 15:33:57;;;;;;;;;;;14.80;48.10;;;13.63;52.26;101147.84;12242284;19;19935;-83
2023/10/15 15:37:58;;;;;;;;;;;14.80;48.00;;;13.54;52.17;101146.63;12242972;19;19915;-83
2023/10/15 15:42:00;;;;;;;;;;;14.70;48.00;;;13.52;52.20;101145.88;12240642;19;19940;-83
2023/10/15 15:46:07;;;;;;;;;;;14.70;47.90;;;13.49;52.04;101159.19;12238924;19;19923;-83
2023/10/15 15:50:11;;;;;;;;;;;14.70;47.80;;;13.38;52.08;101132.75;12235549;19;19933;-83
2023/10/15 15:54:13;;;;;;;;;;;14.60;47.70;;;13.40;52.10;101154.50;12245884;19;19907;-83
2023/10/15 15:58:15;;;;;;;;;;;14.60;47.90;;;13.39;52.17;101152.81;12246710;19;20455;-83
2023/10/15 16:02:16;;;;;;;;;;;14.60;48.20;;;13.11;52.06;101124.75;12241812;19;20250;-83
2023/10/15 16:06:18;;;;;;;;;;;14.50;48.10;;;13.16;52.05;101162.84;12230877;19;19926;-83
2023/10/15 16:10:22;;;;;;;;;;;14.40;47.20;;;13.22;52.20;101180.00;12233629;19;19915;-81
2023/10/15 16:14:24;;;;;;;;;;;14.30;47.70;;;13.12;52.10;101187.56;12232175;19;19946;-83
2023/10/15 16:18:27;;;;;;;;;;;14.30;47.50;;;13.13;52.05;101196.28;12232529;19;19931;-83
2023/10/15 16:22:29;;;;;;;;;;;14.30;47.80;;;13.04;52.11;101190.66;12231174;19;19934;-85
2023/10/15 16:26:33;;;;;;;;;;;14.20;47.90;;;13.14;52.10;101208.47;12231355;19;19939;-83
2023/10/15 16:30:35;;;;;;;;;;;14.20;48.00;;;13.09;51.99;101219.22;12233430;19;19910;-82
2023/10/15 16:34:38;;;;;;;;;;;14.20;48.10;;;12.95;51.94;101206.06;12236437;19;19958;-84
2023/10/15 16:38:41;;;;;;;;;;;14.20;48.10;;;13.06;51.97;101240.38;12247186;19;20333;-82
2023/10/15 16:42:44;;;;;;;;;;;14.20;48.10;;;12.92;51.98;101230.66;12246552;19;19919;-82
2023/10/15 16:46:45;;;;;;;;;;;14.10;48.20;;;12.96;51.87;101244.44;12245510;19;19926;-83
2023/10/15 16:50:47;;;;;;;;;;;14.10;48.20;;;12.92;51.90;101242.94;12241982;19;19919;-83
2023/10/15 16:54:49;;;;;;;;;;;14.00;48.10;;;12.87;51.90;101258.06;12241997;19;19939;-83
2023/10/15 16:58:51;;;;;;;;;;;14.00;48.10;;;12.79;52.06;101259.34;12245888;19;19946;-83
2023/10/15 17:02:56;;;;;;;;;;;13.90;48.00;;;12.71;52.07;101252.84;12243158;19;19986;-83
2023/10/15 17:06:58;;;;;;;;;;;13.90;48.10;;;12.69;51.94;101255.56;12243804;19;19960;-83
2023/10/15 17:10:59;;;;;;;;;;;13.90;48.20;;;12.73;52.05;101274.56;12240855;19;19991;-83
2023/10/15 17:15:01;;;;;;;;;;;13.80;48.10;;;12.59;52.13;101252.59;12243976;19;19923;-83
2023/10/15 17:19:02;;;;;;;;;;;13.90;48.20;;;12.72;52.02;101263.25;12243124;19;20312;-83
2023/10/15 17:23:04;;;;;;;;;;;13.80;48.20;;;12.75;51.96;101278.81;12243342;19;19956;-83
2023/10/15 17:27:06;;;;;;;;;;;13.90;48.20;;;12.76;52.06;101283.09;12242099;19;19946;-81
2023/10/15 17:31:07;;;;;;;;;;;13.80;48.10;;;12.62;51.95;101259.44;12240136;19;19915;-84
2023/10/15 17:35:09;;;;;;;;;;;13.80;48.30;;;12.66;52.07;101260.94;12240210;19;19930;-84
2023/10/15 17:39:11;;;;;;;;;;;13.90;48.20;;;12.74;52.02;101282.34;12229561;19;20283;-83
2023/10/15 17:43:12;;;;;;;;;;;13.80;48.30;;;12.71;51.95;101272.03;12234151;19;19919;-82
2023/10/15 17:47:14;;;;;;;;;;;13.80;48.30;;;12.72;52.03;101276.34;12237253;19;19919;-83
2023/10/15 17:51:15;;;;;;;;;;;13.80;48.20;;;12.77;51.95;101283.94;12238112;19;19978;-82
2023/10/15 17:55:17;;;;;;;;;;;13.80;48.30;;;12.64;52.03;101281.19;12247852;19;19957;-82
2023/10/15 17:59:19;;;;;;;;;;;13.80;48.30;;;12.62;51.94;101281.25;12247139;19;20000;-82
2023/10/15 18:03:20;;;;;;;;;;;13.80;48.20;;;12.70;51.82;101299.16;12244401;19;19952;-82
2023/10/15 18:07:23;;;;;;;;;;;13.80;48.20;;;12.58;51.99;101303.31;12251402;19;19927;-83
2023/10/15 18:11:26;;;;;;;;;;;13.80;48.10;;;12.57;52.04;101314.72;12249901;19;19918;-83
2023/10/15 18:15:29;;;;;;;;;;;13.70;48.20;;;12.22;52.06;101260.75;12252460;19;19911;-82
2023/10/15 18:19:30;;;;;;;;;;;13.70;48.20;;;12.42;51.99;101291.94;12247490;19;19926;-83
2023/10/15 18:23:31;;;;;;;;;;;13.70;48.30;;;12.39;52.07;101289.50;12251108;19;20294;-82
2023/10/15 18:27:33;;;;;;;;;;;13.70;48.30;;;12.51;51.99;101314.22;12244147;19;19922;-82